createdAt,value
2023-05-21T00:01:16.410Z,80.83
2023-05-21T00:03:46.062Z,80.91
2023-05-21T00:06:16.418Z,81.12
2023-05-21T00:08:43.329Z,81.09
2023-05-21T00:11:11.211Z,81.17
2023-05-21T00:13:38.720Z,81.18
2023-05-21T00:16:06.050Z,81.26
2023-05-21T00:18:34.344Z,81.40
2023-05-21T00:21:01.909Z,81.35
2023-05-21T00:23:29.147Z,81.53
2023-05-21T00:25:56.420Z,81.56
2023-05-21T00:28:23.159Z,81.39
2023-05-21T00:30:49.935Z,81.55
2023-05-21T00:33:16.757Z,81.66
2023-05-21T00:35:43.629Z,81.58
2023-05-21T00:38:10.397Z,81.57
2023-05-21T00:40:37.168Z,81.58
2023-05-21T00:43:03.907Z,81.77
2023-05-21T00:45:30.675Z,82.05
2023-05-21T00:47:57.890Z,82.01
2023-05-21T00:50:24.879Z,81.90
2023-05-21T00:52:51.917Z,82.08
2023-05-21T00:55:18.762Z,82.18
2023-05-21T00:57:46.219Z,82.28
2023-05-21T01:00:14.968Z,82.37
2023-05-21T01:02:42.379Z,82.19
2023-05-21T01:05:10.730Z,82.21
2023-05-21T01:07:41.584Z,82.48
2023-05-21T01:10:10.832Z,82.60
2023-05-21T01:12:40.681Z,82.37
2023-05-21T01:15:08.742Z,82.62
2023-05-21T01:17:35.749Z,82.82
2023-05-21T01:20:10.185Z,83.04
2023-05-21T01:22:42.099Z,83.09
2023-05-21T01:25:09.613Z,83.30
2023-05-21T01:27:36.328Z,83.26
2023-05-21T01:30:03.312Z,83.30
2023-05-21T01:32:50.036Z,83.38
2023-05-21T01:35:26.397Z,83.59
2023-05-21T01:38:06.268Z,83.74
2023-05-21T01:40:54.601Z,83.66
2023-05-21T01:43:23.620Z,83.66
2023-05-21T01:45:54.647Z,83.67
2023-05-21T01:48:24.374Z,83.80
2023-05-21T01:50:53.072Z,83.80
2023-05-21T01:53:19.901Z,83.85
2023-05-21T01:55:47.096Z,83.92
2023-05-21T01:58:15.788Z,83.79
2023-05-21T02:00:42.827Z,83.95
2023-05-21T02:03:09.712Z,84.28
2023-05-21T02:05:36.784Z,84.23
2023-05-21T02:08:03.882Z,84.49
2023-05-21T02:10:30.777Z,84.29
2023-05-21T02:12:57.530Z,84.50
2023-05-21T02:15:25.012Z,84.68
2023-05-21T02:17:51.923Z,84.64
2023-05-21T02:20:19.150Z,84.81
2023-05-21T02:22:48.162Z,85.01
2023-05-21T02:25:16.838Z,84.90
2023-05-21T02:27:44.648Z,84.78
2023-05-21T02:30:12.645Z,84.89
2023-05-21T02:32:43.289Z,84.62
2023-05-21T02:35:11.904Z,84.81
2023-05-21T02:37:40.652Z,84.90
2023-05-21T02:40:10.245Z,84.94
2023-05-21T02:42:39.765Z,85.01
2023-05-21T02:45:11.725Z,85.21
2023-05-21T02:47:39.223Z,85.07
2023-05-21T02:50:07.937Z,85.11
2023-05-21T02:52:34.948Z,85.24
2023-05-21T02:55:01.707Z,85.24
2023-05-21T02:57:28.493Z,85.33
2023-05-21T02:59:55.217Z,85.29
2023-05-21T03:02:22.655Z,85.41
2023-05-21T03:04:51.657Z,85.50
2023-05-21T03:07:20.075Z,85.71
2023-05-21T03:09:47.314Z,85.67
2023-05-21T03:12:15.134Z,85.58
2023-05-21T03:14:46.583Z,85.78
2023-05-21T03:17:17.253Z,85.72
2023-05-21T03:19:45.011Z,85.95
2023-05-21T03:22:12.337Z,85.87
2023-05-21T03:24:39.450Z,85.80
2023-05-21T03:27:07.196Z,85.83
2023-05-21T03:29:34.927Z,85.97
2023-05-21T03:32:02.390Z,86.30
2023-05-21T03:34:29.254Z,86.23
2023-05-21T03:36:56.008Z,86.08
2023-05-21T03:39:22.802Z,86.26
2023-05-21T03:41:49.571Z,86.42
2023-05-21T03:44:16.488Z,86.68
2023-05-21T03:46:45.149Z,86.71
2023-05-21T03:49:11.936Z,87.01
2023-05-21T03:51:39.722Z,87.32
2023-05-21T03:54:06.658Z,87.37
2023-05-21T03:56:33.573Z,87.57
2023-05-21T03:59:00.352Z,87.53
2023-05-21T04:01:28.539Z,87.54
2023-05-21T04:03:55.940Z,87.70
2023-05-21T04:06:22.903Z,87.81
2023-05-21T04:08:49.866Z,87.80
2023-05-21T04:11:16.937Z,87.84
2023-05-21T04:13:43.755Z,88.08
2023-05-21T04:16:10.974Z,88.25
2023-05-21T04:18:39.550Z,88.07
2023-05-21T04:21:06.425Z,88.08
2023-05-21T04:23:33.779Z,88.25
2023-05-21T04:26:00.590Z,88.05
2023-05-21T04:28:29.986Z,88.15
2023-05-21T04:30:56.792Z,88.38
2023-05-21T04:33:24.611Z,88.49
2023-05-21T04:35:52.172Z,88.47
2023-05-21T04:38:19.930Z,88.88
2023-05-21T04:40:51.057Z,88.81
2023-05-21T04:43:18.116Z,88.85
2023-05-21T04:45:45.272Z,89.14
2023-05-21T04:48:12.785Z,89.06
2023-05-21T04:50:41.666Z,89.18
2023-05-21T04:53:08.821Z,89.31
2023-05-21T04:55:40.059Z,89.40
2023-05-21T04:58:13.178Z,89.46
2023-05-21T05:00:42.333Z,89.38
2023-05-21T05:03:09.327Z,89.48
2023-05-21T05:05:36.444Z,89.40
2023-05-21T05:08:04.201Z,89.06
2023-05-21T05:10:30.996Z,89.21
2023-05-21T05:12:57.739Z,89.47
2023-05-21T05:15:24.488Z,89.64
2023-05-21T05:17:52.379Z,89.65
2023-05-21T05:20:19.187Z,89.75
2023-05-21T05:22:45.985Z,89.67
2023-05-21T05:25:12.691Z,89.75
2023-05-21T05:27:39.520Z,89.49
2023-05-21T05:30:07.356Z,89.52
2023-05-21T05:32:37.075Z,89.29
2023-05-21T05:35:04.144Z,89.18
2023-05-21T05:37:31.199Z,89.07
2023-05-21T05:39:58.004Z,89.25
2023-05-21T05:42:24.875Z,88.98
2023-05-21T05:44:51.631Z,89.16
2023-05-21T05:47:18.321Z,88.94
2023-05-21T05:49:45.106Z,89.02
2023-05-21T05:52:11.979Z,89.07
2023-05-21T05:54:38.893Z,88.95
2023-05-21T05:57:05.977Z,88.95
2023-05-21T05:59:34.004Z,89.19
2023-05-21T06:02:01.511Z,89.02
2023-05-21T06:04:30.253Z,88.91
2023-05-21T06:07:00.687Z,89.20
2023-05-21T06:09:27.522Z,89.02
2023-05-21T06:11:54.373Z,88.86
2023-05-21T06:14:21.174Z,88.78
2023-05-21T06:16:47.914Z,88.47
2023-05-21T06:19:14.841Z,88.63
2023-05-21T06:21:41.637Z,88.54
2023-05-21T06:24:08.388Z,88.54
2023-05-21T06:26:35.221Z,88.44
2023-05-21T06:29:03.849Z,88.29
2023-05-21T06:31:33.301Z,88.22
2023-05-21T06:34:00.918Z,88.35
2023-05-21T06:36:30.239Z,88.42
2023-05-21T06:38:57.450Z,88.24
2023-05-21T06:41:24.329Z,88.20
2023-05-21T06:43:51.647Z,88.14
2023-05-21T06:46:18.627Z,87.90
2023-05-21T06:48:46.514Z,87.74
2023-05-21T06:51:14.466Z,87.71
2023-05-21T06:53:41.382Z,87.49
2023-05-21T06:56:08.478Z,87.30
2023-05-21T06:58:35.338Z,87.02
2023-05-21T07:01:02.605Z,86.99
2023-05-21T07:03:29.675Z,86.70
2023-05-21T07:05:57.850Z,86.58
2023-05-21T07:08:24.659Z,86.76
2023-05-21T07:10:51.568Z,86.89
2023-05-21T07:13:18.559Z,86.67
2023-05-21T07:15:45.522Z,86.51
2023-05-21T07:18:13.396Z,86.37
2023-05-21T07:20:40.326Z,86.11
2023-05-21T07:23:07.200Z,85.81
2023-05-21T07:25:34.361Z,85.77
2023-05-21T07:28:01.356Z,85.70
2023-05-21T07:30:28.307Z,85.55
2023-05-21T07:32:55.148Z,85.57
2023-05-21T07:35:22.075Z,85.39
2023-05-21T07:37:48.883Z,85.49
2023-05-21T07:40:15.946Z,85.16
2023-05-21T07:42:42.748Z,84.94
2023-05-21T07:45:09.897Z,84.82
2023-05-21T07:47:36.802Z,84.37
2023-05-21T07:50:03.747Z,84.03
2023-05-21T07:52:30.621Z,83.66
2023-05-21T07:54:57.412Z,83.50
2023-05-21T07:57:27.721Z,83.33
2023-05-21T07:59:54.517Z,83.26
2023-05-21T08:02:21.658Z,83.21
2023-05-21T08:04:48.684Z,83.06
2023-05-21T08:07:17.164Z,82.91
2023-05-21T08:09:47.232Z,82.75
2023-05-21T08:12:16.798Z,82.14
2023-05-21T08:14:44.000Z,81.63
2023-05-21T08:17:14.005Z,81.27
2023-05-21T08:19:42.089Z,80.77
2023-05-21T08:22:08.908Z,80.53
2023-05-21T08:24:35.729Z,80.07
2023-05-21T08:27:02.476Z,79.79
2023-05-21T08:29:29.270Z,79.53
2023-05-21T08:31:56.532Z,79.33
2023-05-21T08:34:23.372Z,78.71
2023-05-21T08:36:50.358Z,78.26
2023-05-21T08:39:18.337Z,77.99
2023-05-21T08:41:49.810Z,77.77
2023-05-21T08:44:21.872Z,77.56
2023-05-21T08:46:50.137Z,77.64
2023-05-21T08:49:18.847Z,76.99
2023-05-21T08:51:47.506Z,76.44
2023-05-21T08:54:14.447Z,76.23
2023-05-21T08:56:47.220Z,75.67
2023-05-21T08:59:15.195Z,75.66
2023-05-21T09:01:44.697Z,75.25
2023-05-21T09:04:20.971Z,75.06
2023-05-21T09:06:48.672Z,74.29
2023-05-21T09:09:30.324Z,74.53
2023-05-21T09:11:57.174Z,74.05
2023-05-21T09:14:24.590Z,73.90
2023-05-21T09:16:51.535Z,73.69
2023-05-21T09:19:22.416Z,73.46
2023-05-21T09:21:52.502Z,73.63
2023-05-21T09:24:22.733Z,73.73
2023-05-21T09:26:52.698Z,73.61
2023-05-21T09:29:19.541Z,73.97
2023-05-21T09:31:46.549Z,73.51
2023-05-21T09:34:16.551Z,73.44
2023-05-21T09:36:47.195Z,73.51
2023-05-21T09:39:28.012Z,73.51
2023-05-21T09:41:57.501Z,73.32
2023-05-21T09:44:24.467Z,73.37
2023-05-21T09:46:59.125Z,73.41
2023-05-21T09:49:26.676Z,73.62
2023-05-21T09:51:59.578Z,73.37
2023-05-21T09:54:31.951Z,73.51
2023-05-21T09:57:01.604Z,73.50
2023-05-21T09:59:39.118Z,73.68
2023-05-21T10:02:21.476Z,73.55
2023-05-21T10:04:50.499Z,73.73
2023-05-21T10:07:21.795Z,73.47
2023-05-21T10:09:49.321Z,73.62
2023-05-21T10:12:19.245Z,73.43
2023-05-21T10:14:52.552Z,73.22
2023-05-21T10:17:19.837Z,72.94
2023-05-21T10:19:48.740Z,72.98
2023-05-21T10:22:16.928Z,73.08
2023-05-21T10:24:45.340Z,73.30
2023-05-21T10:27:14.191Z,73.06
2023-05-21T10:29:41.984Z,73.27
2023-05-21T10:32:08.822Z,73.43
2023-05-21T10:34:38.389Z,73.11
2023-05-21T10:37:08.641Z,73.09
2023-05-21T10:39:37.033Z,73.34
2023-05-21T10:42:16.182Z,73.44
2023-05-21T10:44:59.527Z,73.36
2023-05-21T10:48:05.207Z,73.25
2023-05-21T10:50:50.474Z,73.44
2023-05-21T10:53:29.079Z,73.00
2023-05-21T10:56:07.647Z,72.95
2023-05-21T10:59:12.640Z,72.58
2023-05-21T11:01:41.898Z,72.82
2023-05-21T11:04:10.017Z,72.66
2023-05-21T11:06:36.788Z,72.35
2023-05-21T11:09:16.475Z,72.15
2023-05-21T11:11:50.981Z,72.12
2023-05-21T11:14:31.830Z,72.05
2023-05-21T11:17:07.743Z,71.94
2023-05-21T11:19:47.590Z,71.51
2023-05-21T11:22:20.574Z,71.02
2023-05-21T11:24:50.864Z,70.85
2023-05-21T11:27:40.981Z,70.83
2023-05-21T11:30:14.630Z,70.01
2023-05-21T11:33:11.328Z,70.36
2023-05-21T11:35:50.516Z,70.20
2023-05-21T11:38:18.238Z,70.04
2023-05-21T11:40:56.535Z,69.86
2023-05-21T11:43:23.338Z,69.87
2023-05-21T11:45:52.820Z,69.71
2023-05-21T11:48:21.512Z,68.76
2023-05-21T11:50:48.716Z,68.17
2023-05-21T11:53:15.867Z,68.62
2023-05-21T11:55:43.773Z,68.45
2023-05-21T11:58:14.468Z,68.86
2023-05-21T12:00:41.432Z,68.49
2023-05-21T12:03:12.975Z,68.13
2023-05-21T12:05:49.837Z,68.08
2023-05-21T12:08:27.203Z,67.79
2023-05-21T12:11:01.895Z,67.83
2023-05-21T12:13:28.912Z,67.43
2023-05-21T12:15:56.141Z,67.32
2023-05-21T12:18:23.003Z,67.64
2023-05-21T12:20:52.252Z,67.66
2023-05-21T12:23:20.865Z,67.12
2023-05-21T12:25:47.716Z,66.75
2023-05-21T12:28:15.571Z,66.54
2023-05-21T12:30:42.438Z,65.98
2023-05-21T12:33:09.378Z,65.90
2023-05-21T12:35:37.506Z,65.04
2023-05-21T12:38:05.228Z,64.51
2023-05-21T12:40:39.889Z,64.82
2023-05-21T12:43:07.528Z,64.49
2023-05-21T12:45:34.716Z,64.41
2023-05-21T12:48:02.399Z,63.95
2023-05-21T12:50:29.321Z,63.87
2023-05-21T12:52:57.834Z,63.30
2023-05-21T12:55:28.864Z,63.02
2023-05-21T12:58:10.933Z,62.26
2023-05-21T13:00:38.130Z,61.16
2023-05-21T13:03:06.792Z,60.73
2023-05-21T13:05:34.621Z,60.62
2023-05-21T13:08:01.546Z,60.77
2023-05-21T13:10:29.438Z,60.18
2023-05-21T13:12:56.609Z,59.53
2023-05-21T13:15:23.484Z,59.26
2023-05-21T13:17:51.148Z,58.73
2023-05-21T13:20:26.386Z,58.60
2023-05-21T13:22:54.145Z,58.76
2023-05-21T13:25:25.060Z,58.44
2023-05-21T13:27:53.126Z,58.60
2023-05-21T13:30:21.434Z,58.69
2023-05-21T13:32:48.916Z,58.86
2023-05-21T13:35:16.950Z,58.35
2023-05-21T13:37:44.750Z,58.93
2023-05-21T13:40:15.348Z,58.49
2023-05-21T13:42:47.117Z,59.11
2023-05-21T13:45:16.715Z,58.19
2023-05-21T13:47:45.220Z,58.31
2023-05-21T13:50:12.597Z,58.23
2023-05-21T13:52:39.776Z,57.96
2023-05-21T13:55:07.321Z,57.92
2023-05-21T13:57:34.227Z,57.87
2023-05-21T14:00:01.534Z,58.18
2023-05-21T14:02:28.793Z,59.27
2023-05-21T14:04:55.766Z,58.75
2023-05-21T14:07:22.788Z,58.96
2023-05-21T14:09:50.083Z,59.39
2023-05-21T14:12:17.352Z,59.31
2023-05-21T14:14:44.262Z,59.18
2023-05-21T14:17:11.251Z,59.28
2023-05-21T14:19:38.045Z,59.55
2023-05-21T14:22:04.979Z,59.81
2023-05-21T14:24:31.701Z,60.00
2023-05-21T14:26:58.598Z,60.27
2023-05-21T14:29:25.374Z,60.35
2023-05-21T14:31:52.132Z,60.68
2023-05-21T14:34:18.950Z,60.56
2023-05-21T14:36:46.153Z,60.41
2023-05-21T14:39:12.881Z,60.59
2023-05-21T14:41:39.932Z,60.73
2023-05-21T14:44:06.861Z,60.39
2023-05-21T14:46:34.028Z,60.38
2023-05-21T14:49:01.012Z,60.19
2023-05-21T14:51:28.197Z,60.11
2023-05-21T14:53:57.280Z,60.30
2023-05-21T14:56:26.827Z,60.34
2023-05-21T14:58:54.058Z,61.09
2023-05-21T15:01:21.072Z,61.00
2023-05-21T15:03:47.981Z,61.23
2023-05-21T15:06:14.889Z,61.06
2023-05-21T15:08:41.615Z,60.74
2023-05-21T15:11:10.237Z,60.19
2023-05-21T15:13:37.209Z,60.34
2023-05-21T15:16:04.259Z,60.33
2023-05-21T15:18:31.100Z,60.37
2023-05-21T15:20:58.430Z,60.38
2023-05-21T15:23:25.471Z,60.84
2023-05-21T15:25:52.409Z,60.74
2023-05-21T15:28:20.320Z,60.72
2023-05-21T15:30:47.097Z,61.34
2023-05-21T15:33:14.949Z,60.79
2023-05-21T15:35:42.363Z,60.86
2023-05-21T15:38:10.160Z,60.58
2023-05-21T15:40:41.380Z,60.16
2023-05-21T15:43:10.710Z,59.88
2023-05-21T15:45:38.869Z,59.78
2023-05-21T15:48:09.001Z,60.03
2023-05-21T15:50:35.963Z,60.34
2023-05-21T15:53:04.300Z,60.76
2023-05-21T15:55:34.091Z,60.63
2023-05-21T15:58:02.450Z,60.99
2023-05-21T16:00:29.569Z,61.13
2023-05-21T16:02:56.596Z,61.59
2023-05-21T16:05:23.760Z,61.66
2023-05-21T16:07:50.602Z,61.57
2023-05-21T16:10:17.504Z,62.25
2023-05-21T16:12:44.379Z,62.46
2023-05-21T16:15:11.258Z,62.64
2023-05-21T16:17:38.152Z,62.88
2023-05-21T16:20:05.714Z,62.85
2023-05-21T16:22:33.560Z,63.45
2023-05-21T16:25:00.250Z,63.37
2023-05-21T16:27:27.042Z,63.56
2023-05-21T16:29:53.827Z,64.16
2023-05-21T16:32:21.333Z,64.47
2023-05-21T16:34:48.368Z,64.55
2023-05-21T16:37:15.101Z,64.63
2023-05-21T16:39:41.934Z,65.15
2023-05-21T16:42:08.746Z,64.92
2023-05-21T16:44:37.105Z,65.13
2023-05-21T16:47:04.530Z,65.34
2023-05-21T16:49:32.423Z,65.19
2023-05-21T16:51:59.154Z,65.57
2023-05-21T16:54:27.108Z,65.69
2023-05-21T16:56:55.092Z,65.84
2023-05-21T16:59:22.069Z,66.07
2023-05-21T17:01:49.027Z,66.19
2023-05-21T17:04:15.850Z,66.20
2023-05-21T17:06:42.625Z,66.20
2023-05-21T17:09:09.370Z,65.97
2023-05-21T17:11:36.203Z,66.28
2023-05-21T17:14:03.222Z,66.44
2023-05-21T17:16:30.135Z,66.37
2023-05-21T17:18:57.126Z,66.60
2023-05-21T17:21:23.995Z,66.59
2023-05-21T17:23:50.718Z,66.63
2023-05-21T17:26:17.508Z,66.80
2023-05-21T17:28:44.371Z,66.87
2023-05-21T17:31:11.185Z,67.34
2023-05-21T17:33:38.109Z,67.63
2023-05-21T17:36:05.178Z,67.22
2023-05-21T17:38:31.984Z,67.50
2023-05-21T17:40:59.483Z,67.64
2023-05-21T17:43:31.920Z,68.03
2023-05-21T17:45:58.809Z,68.16
2023-05-21T17:48:26.133Z,68.49
2023-05-21T17:50:52.958Z,68.45
2023-05-21T17:53:19.835Z,68.70
2023-05-21T17:55:46.668Z,69.00
2023-05-21T17:58:13.421Z,68.85
2023-05-21T18:00:40.401Z,68.64
2023-05-21T18:03:09.666Z,68.70
2023-05-21T18:05:36.794Z,68.85
2023-05-21T18:08:04.226Z,68.89
2023-05-21T18:10:30.991Z,69.17
2023-05-21T18:12:57.997Z,69.08
2023-05-21T18:15:24.808Z,69.42
2023-05-21T18:17:51.659Z,69.59
2023-05-21T18:20:18.556Z,69.72
2023-05-21T18:22:45.569Z,69.79
2023-05-21T18:25:12.427Z,69.93
2023-05-21T18:27:39.211Z,70.04
2023-05-21T18:30:07.069Z,70.06
2023-05-21T18:32:34.604Z,70.43
2023-05-21T18:35:01.431Z,70.42
2023-05-21T18:37:29.257Z,70.56
2023-05-21T18:39:56.050Z,70.49
2023-05-21T18:42:22.797Z,70.55
2023-05-21T18:44:52.422Z,70.93
2023-05-21T18:47:19.314Z,70.56
2023-05-21T18:49:46.041Z,70.53
2023-05-21T18:52:13.114Z,70.67
2023-05-21T18:54:39.922Z,71.05
2023-05-21T18:57:06.762Z,71.00
2023-05-21T18:59:33.604Z,70.86
2023-05-21T19:02:01.760Z,71.25
2023-05-21T19:04:28.847Z,71.39
2023-05-21T19:06:55.996Z,71.45
2023-05-21T19:09:22.844Z,71.74
2023-05-21T19:11:50.727Z,71.71
2023-05-21T19:14:17.551Z,71.93
2023-05-21T19:16:44.336Z,72.25
2023-05-21T19:19:11.096Z,72.39
2023-05-21T19:21:37.874Z,72.50
2023-05-21T19:24:05.991Z,72.45
2023-05-21T19:26:37.623Z,72.36
2023-05-21T19:29:04.433Z,72.44
2023-05-21T19:31:31.208Z,72.41
2023-05-21T19:33:57.966Z,72.58
2023-05-21T19:36:24.799Z,72.83
2023-05-21T19:38:51.692Z,72.77
2023-05-21T19:41:19.752Z,72.74
2023-05-21T19:43:46.996Z,72.80
2023-05-21T19:46:17.113Z,72.77
2023-05-21T19:48:45.966Z,73.07
2023-05-21T19:51:13.453Z,72.94
2023-05-21T19:53:43.323Z,73.04
2023-05-21T19:56:10.002Z,73.19
2023-05-21T19:58:36.814Z,73.15
2023-05-21T20:01:03.718Z,73.10
2023-05-21T20:03:36.180Z,73.39
2023-05-21T20:06:03.655Z,73.49
2023-05-21T20:08:30.936Z,73.58
2023-05-21T20:10:57.709Z,73.89
2023-05-21T20:13:25.229Z,74.05
2023-05-21T20:15:52.484Z,74.10
2023-05-21T20:18:21.517Z,74.05
2023-05-21T20:20:49.207Z,74.02
2023-05-21T20:23:16.032Z,74.28
2023-05-21T20:25:42.871Z,74.38
2023-05-21T20:28:09.734Z,74.58
2023-05-21T20:30:57.500Z,74.84
2023-05-21T20:33:25.561Z,74.88
2023-05-21T20:35:52.436Z,74.93
2023-05-21T20:38:21.049Z,74.83
2023-05-21T20:40:48.118Z,74.74
2023-05-21T20:43:15.472Z,75.00
2023-05-21T20:45:43.664Z,75.10
2023-05-21T20:48:12.150Z,75.09
2023-05-21T20:50:40.932Z,75.25
2023-05-21T20:53:08.809Z,75.21
2023-05-21T20:55:36.613Z,75.19
2023-05-21T20:58:04.500Z,75.45
2023-05-21T21:00:34.339Z,75.39
2023-05-21T21:03:02.214Z,75.46
2023-05-21T21:05:29.115Z,75.48
2023-05-21T21:07:56.144Z,75.40
2023-05-21T21:10:23.088Z,75.37
2023-05-21T21:12:49.940Z,75.55
2023-05-21T21:15:16.868Z,75.33
2023-05-21T21:17:43.731Z,75.47
2023-05-21T21:20:12.871Z,75.41
2023-05-21T21:22:39.844Z,75.39
2023-05-21T21:25:06.882Z,75.61
2023-05-21T21:27:33.728Z,75.66
2023-05-21T21:30:04.795Z,75.61
2023-05-21T21:32:31.710Z,75.61
2023-05-21T21:34:58.566Z,75.46
2023-05-21T21:37:25.642Z,75.54
2023-05-21T21:39:53.335Z,75.70
2023-05-21T21:42:20.118Z,75.60
2023-05-21T21:44:47.236Z,75.64
2023-05-21T21:47:13.992Z,75.82
2023-05-21T21:49:41.584Z,75.99
2023-05-21T21:52:08.410Z,76.06
2023-05-21T21:54:35.374Z,76.20
2023-05-21T21:57:02.161Z,76.03
2023-05-21T21:59:29.386Z,76.07
2023-05-21T22:01:56.296Z,75.96
2023-05-21T22:04:23.139Z,76.27
2023-05-21T22:06:50.359Z,76.00
2023-05-21T22:09:17.680Z,76.11
2023-05-21T22:11:44.474Z,76.12
2023-05-21T22:14:11.787Z,76.30
2023-05-21T22:16:38.801Z,76.25
2023-05-21T22:19:05.654Z,76.16
2023-05-21T22:21:33.199Z,76.25
2023-05-21T22:24:00.219Z,76.19
2023-05-21T22:26:27.053Z,76.07
2023-05-21T22:28:53.912Z,76.01
2023-05-21T22:31:21.022Z,75.86
2023-05-21T22:33:49.648Z,75.98
2023-05-21T22:36:16.429Z,76.14
2023-05-21T22:38:43.904Z,76.39
2023-05-21T22:41:11.222Z,76.14
2023-05-21T22:43:38.225Z,76.18
2023-05-21T22:46:05.096Z,76.13
2023-05-21T22:48:34.553Z,76.05
2023-05-21T22:51:01.990Z,76.36
2023-05-21T22:53:28.928Z,76.38
2023-05-21T22:55:55.717Z,76.26
2023-05-21T22:58:22.451Z,76.38
2023-05-21T23:00:49.642Z,76.22
2023-05-21T23:03:16.936Z,76.43
2023-05-21T23:05:44.205Z,76.52
2023-05-21T23:08:11.067Z,76.54
2023-05-21T23:10:38.120Z,76.55
2023-05-21T23:13:08.000Z,76.53
2023-05-21T23:15:34.723Z,76.62
2023-05-21T23:18:04.015Z,76.46
2023-05-21T23:20:32.489Z,76.74
2023-05-21T23:22:59.297Z,76.94
2023-05-21T23:25:26.059Z,76.96
2023-05-21T23:27:53.067Z,77.05
2023-05-21T23:30:19.902Z,77.12
2023-05-21T23:32:46.658Z,77.23
2023-05-21T23:35:14.510Z,77.40
2023-05-21T23:37:41.252Z,77.34
2023-05-21T23:40:09.354Z,77.23
2023-05-21T23:42:36.178Z,77.44
2023-05-21T23:45:04.535Z,77.50
2023-05-21T23:47:31.240Z,77.77
2023-05-21T23:49:57.996Z,77.99
2023-05-21T23:52:24.740Z,78.05
2023-05-21T23:54:51.477Z,78.12
2023-05-21T23:57:18.268Z,78.17
2023-05-21T23:59:45.013Z,78.17
